TFM - Tactical Decision Aid
ID: Runway Winds: CIG/VIS Threshold:

KJFK - New York/Kennedy Int, NY, US

Updated at: 1759 UTC 23 Apr 2019
Latest TAF at: 1721 UTC 23 Apr 2019

TAF Board

Time1751Z 23/18Z 23/19Z 23/20Z 23/21Z 23/22Z 23/23Z 24/00Z 24/01Z 24/02Z 24/03Z 24/04Z 24/05Z 24/06Z>>
Type OBS PRVL PRVL PRVL PRVL PRVL PRVL PRVL PRVL PRVL PRVL PRVL PRVL PRVL
VIS 10 >6 >6 >6 >6 >6 >6 >6 >6 >6 >6 >6 >6 >6
CIG -- 250 250 250 250 250 250 250 250 60 60 60 60 60
Cover SCT BKN BKN BKN BKN BKN BKN BKN BKN BKN BKN BKN BKN BKN
FltCat VFR VFR VFR VFR VFR VFR VFR VFR VFR VFR VFR VFR VFR VFR
WX -- -- -- -- -- -- -- -- -- -- -- -- -- --
WDir 170 190 190 180 180 180 180 180 180 210 210 210 210 210
WSpd 11 10 10 17 17 17 17 17 17 14 14 14 14 14
WGst -- -- -- -- -- -- -- -- -- -- -- -- -- --

TDA Impact Legend

  None Marginal Slight Moderate High
Visibility (sm) >5 3≤X≤5 1≤X<3 0.5≤X<1 <0.5
Ceiling (100 ft) >30 10≤X≤30 4≤X<10 2≤X<4 <2
Wind Speed (kt) <15 15≤X<25 25≤X<30 ≥30
Wind Gust (kt) <15 15≤X<25 25≤X<35 ≥35
Weather No Wx Reported VCTS -TS,-FZRA TS,FZRA +TS,+FZRA
TAF
KJFK 231721Z 2318/2424 19010KT P6SM FEW060 BKN250
  FM232000 18017KT P6SM FEW060 BKN250
  FM240200 21014KT P6SM SCT035 BKN060 BKN120
  FM240800 28014KT P6SM SCT060
  FM241400 30016G25KT P6SM FEW060


METAR
KJFK 231751Z 17011KT 10SM FEW120 SCT250 20/11 A2993 RMK AO2 SLP135 T02000106 10211 20156 56018
KJFK 231651Z 20012KT 10SM FEW250 20/11 A2994 RMK AO2 SLP137 T02000111
KJFK 231551Z 20008KT 10SM FEW250 20/11 A2995 RMK AO2 SLP143 T02000111
KJFK 231451Z 23006KT 10SM FEW250 19/11 A2998 RMK AO2 SLP153 T01940111 58005

Radar Display
Forecast Discussion